sensor_id;sensor_type;location;lat;lon;timestamp;temperature;humidity
21551;DHT22;10936;49.836;7.078;2022-11-15T06:00:23;18.60;97.80
21551;DHT22;10936;49.836;7.078;2022-11-15T06:02:49;18.60;97.80
21551;DHT22;10936;49.836;7.078;2022-11-15T06:05:15;18.60;97.80
21551;DHT22;10936;49.836;7.078;2022-11-15T06:07:40;18.60;97.80
21551;DHT22;10936;49.836;7.078;2022-11-15T06:10:06;18.60;97.80
21551;DHT22;10936;49.836;7.078;2022-11-15T06:12:32;18.60;97.80
21551;DHT22;10936;49.836;7.078;2022-11-15T06:14:57;18.60;97.80
21551;DHT22;10936;49.836;7.078;2022-11-15T06:17:23;18.60;97.80
21551;DHT22;10936;49.836;7.078;2022-11-15T06:19:48;18.60;97.80
21551;DHT22;10936;49.836;7.078;2022-11-15T06:22:14;18.50;97.80
21551;DHT22;10936;49.836;7.078;2022-11-15T06:24:39;18.60;97.90
21551;DHT22;10936;49.836;7.078;2022-11-15T06:27:05;18.60;98.00
21551;DHT22;10936;49.836;7.078;2022-11-15T06:29:30;18.60;98.00
21551;DHT22;10936;49.836;7.078;2022-11-15T06:31:56;18.60;98.40
21551;DHT22;10936;49.836;7.078;2022-11-15T06:34:22;18.60;98.00
21551;DHT22;10936;49.836;7.078;2022-11-15T06:36:47;18.60;98.00
21551;DHT22;10936;49.836;7.078;2022-11-15T06:39:13;18.60;98.00
21551;DHT22;10936;49.836;7.078;2022-11-15T06:41:38;18.60;98.00
21551;DHT22;10936;49.836;7.078;2022-11-15T06:44:04;18.60;98.00
21551;DHT22;10936;49.836;7.078;2022-11-15T06:46:29;18.60;98.00
21551;DHT22;10936;49.836;7.078;2022-11-15T06:48:55;18.60;98.00
21551;DHT22;10936;49.836;7.078;2022-11-15T06:51:20;18.60;98.00
21551;DHT22;10936;49.836;7.078;2022-11-15T06:53:46;18.60;98.00
21551;DHT22;10936;49.836;7.078;2022-11-15T06:56:12;18.50;97.90
21551;DHT22;10936;49.836;7.078;2022-11-15T06:58:37;18.50;97.90
21551;DHT22;10936;49.836;7.078;2022-11-15T07:01:08;18.60;98.20
21551;DHT22;10936;49.836;7.078;2022-11-15T07:03:35;18.60;98.30
21551;DHT22;10936;49.836;7.078;2022-11-15T07:06:01;18.60;98.30
21551;DHT22;10936;49.836;7.078;2022-11-15T07:08:27;18.60;98.50
21551;DHT22;10936;49.836;7.078;2022-11-15T07:10:54;18.60;98.60
21551;DHT22;10936;49.836;7.078;2022-11-15T07:13:19;18.60;98.80
21551;DHT22;10936;49.836;7.078;2022-11-15T07:15:45;18.60;98.90
21551;DHT22;10936;49.836;7.078;2022-11-15T07:18:11;18.70;99.30
21551;DHT22;10936;49.836;7.078;2022-11-15T07:20:36;18.60;98.90
21551;DHT22;10936;49.836;7.078;2022-11-15T07:23:04;18.70;99.10
21551;DHT22;10936;49.836;7.078;2022-11-15T07:25:30;18.70;99.10
21551;DHT22;10936;49.836;7.078;2022-11-15T07:27:57;18.70;99.10
21551;DHT22;10936;49.836;7.078;2022-11-15T07:30:23;18.70;99.50
21551;DHT22;10936;49.836;7.078;2022-11-15T07:32:55;18.70;99.40
21551;DHT22;10936;49.836;7.078;2022-11-15T07:35:22;18.70;99.00
21551;DHT22;10936;49.836;7.078;2022-11-15T07:40:20;18.70;98.90
21551;DHT22;10936;49.836;7.078;2022-11-15T07:42:46;18.70;98.90
21551;DHT22;10936;49.836;7.078;2022-11-15T07:45:18;18.70;98.80
21551;DHT22;10936;49.836;7.078;2022-11-15T07:47:48;18.70;98.80
21551;DHT22;10936;49.836;7.078;2022-11-15T07:50:13;18.70;98.80
21551;DHT22;10936;49.836;7.078;2022-11-15T07:52:39;18.70;98.70
21551;DHT22;10936;49.836;7.078;2022-11-15T07:55:05;18.70;98.70
21551;DHT22;10936;49.836;7.078;2022-11-15T07:57:30;18.70;98.70
21551;DHT22;10936;49.836;7.078;2022-11-15T07:59:56;18.70;98.70
21551;DHT22;10936;49.836;7.078;2022-11-15T08:02:22;18.70;98.70
21551;DHT22;10936;49.836;7.078;2022-11-15T08:04:47;18.70;98.70
21551;DHT22;10936;49.836;7.078;2022-11-15T08:07:13;18.70;98.60
21551;DHT22;10936;49.836;7.078;2022-11-15T08:09:38;18.70;98.60
21551;DHT22;10936;49.836;7.078;2022-11-15T08:12:04;18.60;98.60
21551;DHT22;10936;49.836;7.078;2022-11-15T08:14:30;18.60;98.60
21551;DHT22;10936;49.836;7.078;2022-11-15T08:16:56;18.70;98.60
21551;DHT22;10936;49.836;7.078;2022-11-15T08:19:22;18.70;98.60
21551;DHT22;10936;49.836;7.078;2022-11-15T08:21:47;18.70;98.50
21551;DHT22;10936;49.836;7.078;2022-11-15T08:24:14;18.70;98.50
21551;DHT22;10936;49.836;7.078;2022-11-15T08:26:39;18.60;98.50
21551;DHT22;10936;49.836;7.078;2022-11-15T08:29:06;18.60;98.50
21551;DHT22;10936;49.836;7.078;2022-11-15T08:31:34;18.60;98.80
21551;DHT22;10936;49.836;7.078;2022-11-15T08:34:00;18.70;98.50
21551;DHT22;10936;49.836;7.078;2022-11-15T08:36:26;18.70;98.50
21551;DHT22;10936;49.836;7.078;2022-11-15T08:38:51;18.60;98.40
21551;DHT22;10936;49.836;7.078;2022-11-15T08:41:31;18.60;98.40
21551;DHT22;10936;49.836;7.078;2022-11-15T08:43:56;18.60;98.40
21551;DHT22;10936;49.836;7.078;2022-11-15T08:46:22;18.60;98.40
21551;DHT22;10936;49.836;7.078;2022-11-15T08:48:48;18.70;98.40
21551;DHT22;10936;49.836;7.078;2022-11-15T08:51:14;18.60;98.40
21551;DHT22;10936;49.836;7.078;2022-11-15T08:53:39;18.70;98.40
21551;DHT22;10936;49.836;7.078;2022-11-15T08:56:10;18.70;98.40
21551;DHT22;10936;49.836;7.078;2022-11-15T08:58:36;18.60;98.40
21551;DHT22;10936;49.836;7.078;2022-11-15T09:01:03;18.70;98.40
21551;DHT22;10936;49.836;7.078;2022-11-15T09:03:29;18.60;98.30
21551;DHT22;10936;49.836;7.078;2022-11-15T09:05:59;18.60;98.30
21551;DHT22;10936;49.836;7.078;2022-11-15T09:08:28;18.60;98.30
21551;DHT22;10936;49.836;7.078;2022-11-15T09:10:54;18.60;98.30
21551;DHT22;10936;49.836;7.078;2022-11-15T09:13:20;18.60;98.30
21551;DHT22;10936;49.836;7.078;2022-11-15T09:15:45;18.60;98.30
21551;DHT22;10936;49.836;7.078;2022-11-15T09:18:11;18.70;98.30
21551;DHT22;10936;49.836;7.078;2022-11-15T09:20:36;18.70;98.60
21551;DHT22;10936;49.836;7.078;2022-11-15T09:23:03;18.70;98.30
21551;DHT22;10936;49.836;7.078;2022-11-15T09:25:30;18.60;98.20
21551;DHT22;10936;49.836;7.078;2022-11-15T09:27:56;18.70;98.30
21551;DHT22;10936;49.836;7.078;2022-11-15T09:30:22;18.70;98.30
21551;DHT22;10936;49.836;7.078;2022-11-15T09:32:48;18.70;98.30
21551;DHT22;10936;49.836;7.078;2022-11-15T09:35:14;18.70;98.20
21551;DHT22;10936;49.836;7.078;2022-11-15T09:37:39;18.70;98.20
21551;DHT22;10936;49.836;7.078;2022-11-15T09:40:06;18.70;98.20
21551;DHT22;10936;49.836;7.078;2022-11-15T09:42:51;18.70;98.20
21551;DHT22;10936;49.836;7.078;2022-11-15T09:53:01;18.70;98.10
21551;DHT22;10936;49.836;7.078;2022-11-15T09:55:38;18.70;98.10
21551;DHT22;10936;49.836;7.078;2022-11-15T10:00:50;18.70;98.10
21551;DHT22;10936;49.836;7.078;2022-11-15T10:03:28;18.80;98.10
21551;DHT22;10936;49.836;7.078;2022-11-15T10:06:00;18.80;98.10
21551;DHT22;10936;49.836;7.078;2022-11-15T10:11:08;18.80;98.10
21551;DHT22;10936;49.836;7.078;2022-11-15T10:13:46;18.80;98.00
21551;DHT22;10936;49.836;7.078;2022-11-15T10:24:39;18.80;98.00
21551;DHT22;10936;49.836;7.078;2022-11-15T10:27:12;18.80;98.00
21551;DHT22;10936;49.836;7.078;2022-11-15T10:29:43;18.90;98.00
21551;DHT22;10936;49.836;7.078;2022-11-15T10:32:11;18.80;98.00
21551;DHT22;10936;49.836;7.078;2022-11-15T10:34:37;18.80;97.90
21551;DHT22;10936;49.836;7.078;2022-11-15T10:37:03;18.80;97.90
21551;DHT22;10936;49.836;7.078;2022-11-15T10:39:29;18.80;97.90
21551;DHT22;10936;49.836;7.078;2022-11-15T10:41:55;18.80;97.90
21551;DHT22;10936;49.836;7.078;2022-11-15T10:44:25;18.80;97.90
21551;DHT22;10936;49.836;7.078;2022-11-15T10:49:28;18.80;97.90
21551;DHT22;10936;49.836;7.078;2022-11-15T10:52:01;18.80;97.90
21551;DHT22;10936;49.836;7.078;2022-11-15T10:57:10;18.80;97.90
21551;DHT22;10936;49.836;7.078;2022-11-15T10:59:37;18.80;97.90
21551;DHT22;10936;49.836;7.078;2022-11-15T11:04:51;18.90;97.90
21551;DHT22;10936;49.836;7.078;2022-11-15T11:07:29;18.90;97.90
21551;DHT22;10936;49.836;7.078;2022-11-15T11:12:29;18.90;97.90
21551;DHT22;10936;49.836;7.078;2022-11-15T11:14:58;18.90;97.90
21551;DHT22;10936;49.836;7.078;2022-11-15T11:20:32;18.90;97.90
21551;DHT22;10936;49.836;7.078;2022-11-15T11:23:26;18.90;97.90
21551;DHT22;10936;49.836;7.078;2022-11-15T11:26:26;18.90;97.90
21551;DHT22;10936;49.836;7.078;2022-11-15T11:31:55;18.90;97.80
21551;DHT22;10936;49.836;7.078;2022-11-15T11:37:31;18.90;97.80
21551;DHT22;10936;49.836;7.078;2022-11-15T11:40:12;18.90;97.80
21551;DHT22;10936;49.836;7.078;2022-11-15T11:42:43;18.90;97.80
21551;DHT22;10936;49.836;7.078;2022-11-15T11:48:52;18.90;97.80
21551;DHT22;10936;49.836;7.078;2022-11-15T11:51:26;18.90;97.80
21551;DHT22;10936;49.836;7.078;2022-11-15T11:54:05;18.90;97.80
21551;DHT22;10936;49.836;7.078;2022-11-15T11:56:37;18.90;97.80
21551;DHT22;10936;49.836;7.078;2022-11-15T11:59:25;18.90;97.80
21551;DHT22;10936;49.836;7.078;2022-11-15T12:01:54;19.00;97.80
21551;DHT22;10936;49.836;7.078;2022-11-15T12:04:42;18.90;97.70
21551;DHT22;10936;49.836;7.078;2022-11-15T12:07:15;19.00;97.70
21551;DHT22;10936;49.836;7.078;2022-11-15T12:09:55;18.90;97.70
21551;DHT22;10936;49.836;7.078;2022-11-15T12:12:33;19.00;97.70
21551;DHT22;10936;49.836;7.078;2022-11-15T12:17:37;19.00;97.70
21551;DHT22;10936;49.836;7.078;2022-11-15T12:20:17;19.00;97.70
21551;DHT22;10936;49.836;7.078;2022-11-15T12:22:56;19.00;97.70
21551;DHT22;10936;49.836;7.078;2022-11-15T12:25:23;19.00;98.00
21551;DHT22;10936;49.836;7.078;2022-11-15T12:28:13;19.00;97.70
21551;DHT22;10936;49.836;7.078;2022-11-15T12:31:06;19.00;97.70
21551;DHT22;10936;49.836;7.078;2022-11-15T12:33:37;19.00;97.70
21551;DHT22;10936;49.836;7.078;2022-11-15T12:36:07;19.00;97.70
21551;DHT22;10936;49.836;7.078;2022-11-15T12:38:58;19.00;97.70
21551;DHT22;10936;49.836;7.078;2022-11-15T12:41:28;19.00;97.70
21551;DHT22;10936;49.836;7.078;2022-11-15T12:43:55;19.00;97.70
21551;DHT22;10936;49.836;7.078;2022-11-15T12:48:52;19.00;97.70
21551;DHT22;10936;49.836;7.078;2022-11-15T12:52:05;19.00;97.70
21551;DHT22;10936;49.836;7.078;2022-11-15T13:02:25;19.00;97.70
21551;DHT22;10936;49.836;7.078;2022-11-15T13:04:53;19.00;97.70
21551;DHT22;10936;49.836;7.078;2022-11-15T13:10:45;19.00;97.80
21551;DHT22;10936;49.836;7.078;2022-11-15T13:17:50;19.00;97.80
21551;DHT22;10936;49.836;7.078;2022-11-15T13:20:18;19.00;97.80
21551;DHT22;10936;49.836;7.078;2022-11-15T13:22:46;19.00;97.90
21551;DHT22;10936;49.836;7.078;2022-11-15T13:30:51;19.00;97.90
21551;DHT22;10936;49.836;7.078;2022-11-15T13:33:25;19.00;97.90
21551;DHT22;10936;49.836;7.078;2022-11-15T13:35:55;19.00;97.90
21551;DHT22;10936;49.836;7.078;2022-11-15T13:40:56;19.00;97.90
21551;DHT22;10936;49.836;7.078;2022-11-15T13:46:10;19.00;97.90
21551;DHT22;10936;49.836;7.078;2022-11-15T13:48:35;19.00;97.90
21551;DHT22;10936;49.836;7.078;2022-11-15T13:54:07;19.00;97.90
21551;DHT22;10936;49.836;7.078;2022-11-15T13:56:33;19.00;97.80
21551;DHT22;10936;49.836;7.078;2022-11-15T13:59:00;19.10;97.80
21551;DHT22;10936;49.836;7.078;2022-11-15T14:01:29;19.10;97.80
21551;DHT22;10936;49.836;7.078;2022-11-15T14:03:58;19.10;97.80
21551;DHT22;10936;49.836;7.078;2022-11-15T14:06:29;19.10;97.80
21551;DHT22;10936;49.836;7.078;2022-11-15T14:08:59;19.00;97.80
21551;DHT22;10936;49.836;7.078;2022-11-15T14:11:25;19.00;97.80
21551;DHT22;10936;49.836;7.078;2022-11-15T14:16:44;19.00;97.80
21551;DHT22;10936;49.836;7.078;2022-11-15T14:19:12;19.00;98.10
21551;DHT22;10936;49.836;7.078;2022-11-15T14:22:18;19.00;97.80
21551;DHT22;10936;49.836;7.078;2022-11-15T14:25:05;19.00;97.90
21551;DHT22;10936;49.836;7.078;2022-11-15T14:27:32;19.00;97.90
21551;DHT22;10936;49.836;7.078;2022-11-15T14:29:58;19.00;97.90
21551;DHT22;10936;49.836;7.078;2022-11-15T14:32:24;19.00;97.90
21551;DHT22;10936;49.836;7.078;2022-11-15T14:34:56;19.00;97.90
21551;DHT22;10936;49.836;7.078;2022-11-15T14:37:26;19.00;97.90
21551;DHT22;10936;49.836;7.078;2022-11-15T14:39:53;19.00;97.90
21551;DHT22;10936;49.836;7.078;2022-11-15T14:42:20;19.00;97.90
21551;DHT22;10936;49.836;7.078;2022-11-15T14:44:46;19.00;97.90
21551;DHT22;10936;49.836;7.078;2022-11-15T14:47:12;19.00;97.90
21551;DHT22;10936;49.836;7.078;2022-11-15T14:49:38;19.00;97.90
21551;DHT22;10936;49.836;7.078;2022-11-15T14:52:23;19.00;97.90
21551;DHT22;10936;49.836;7.078;2022-11-15T14:54:50;18.90;97.90
21551;DHT22;10936;49.836;7.078;2022-11-15T14:57:16;18.90;97.90
21551;DHT22;10936;49.836;7.078;2022-11-15T14:59:41;19.00;98.00
21551;DHT22;10936;49.836;7.078;2022-11-15T15:02:14;18.90;97.90
21551;DHT22;10936;49.836;7.078;2022-11-15T15:04:41;18.90;98.30
21551;DHT22;10936;49.836;7.078;2022-11-15T15:07:06;19.00;98.00
21551;DHT22;10936;49.836;7.078;2022-11-15T15:09:32;18.90;97.90
21551;DHT22;10936;49.836;7.078;2022-11-15T15:11:57;18.90;97.90
21551;DHT22;10936;49.836;7.078;2022-11-15T15:14:23;18.90;97.90
21551;DHT22;10936;49.836;7.078;2022-11-15T15:16:48;18.90;97.90
21551;DHT22;10936;49.836;7.078;2022-11-15T15:19:14;19.00;98.00
21551;DHT22;10936;49.836;7.078;2022-11-15T15:21:39;18.90;97.90
21551;DHT22;10936;49.836;7.078;2022-11-15T15:24:05;18.90;98.00
21551;DHT22;10936;49.836;7.078;2022-11-15T15:26:31;18.90;97.90
21551;DHT22;10936;49.836;7.078;2022-11-15T15:29:01;18.90;97.90
21551;DHT22;10936;49.836;7.078;2022-11-15T15:31:27;18.90;98.00
21551;DHT22;10936;49.836;7.078;2022-11-15T15:33:52;18.90;98.00
21551;DHT22;10936;49.836;7.078;2022-11-15T15:36:18;18.90;97.90
21551;DHT22;10936;49.836;7.078;2022-11-15T15:38:44;18.90;98.00
21551;DHT22;10936;49.836;7.078;2022-11-15T15:41:12;18.90;98.00
21551;DHT22;10936;49.836;7.078;2022-11-15T15:43:38;18.90;98.00
21551;DHT22;10936;49.836;7.078;2022-11-15T15:46:07;18.90;98.00
21551;DHT22;10936;49.836;7.078;2022-11-15T15:48:33;18.90;98.00
21551;DHT22;10936;49.836;7.078;2022-11-15T15:51:02;18.90;98.00
21551;DHT22;10936;49.836;7.078;2022-11-15T15:53:28;18.80;97.90
21551;DHT22;10936;49.836;7.078;2022-11-15T15:55:54;18.90;98.00
21551;DHT22;10936;49.836;7.078;2022-11-15T15:58:19;18.80;97.90
21551;DHT22;10936;49.836;7.078;2022-11-15T16:00:45;18.80;97.90
21551;DHT22;10936;49.836;7.078;2022-11-15T16:03:10;18.80;97.90
21551;DHT22;10936;49.836;7.078;2022-11-15T16:05:36;18.80;98.00
21551;DHT22;10936;49.836;7.078;2022-11-15T16:08:02;18.80;98.00
21551;DHT22;10936;49.836;7.078;2022-11-15T16:10:31;18.80;98.00
21551;DHT22;10936;49.836;7.078;2022-11-15T16:12:59;18.80;98.00
21551;DHT22;10936;49.836;7.078;2022-11-15T16:15:26;18.80;98.00
21551;DHT22;10936;49.836;7.078;2022-11-15T16:17:54;18.80;98.00
21551;DHT22;10936;49.836;7.078;2022-11-15T16:22:59;18.80;98.00
21551;DHT22;10936;49.836;7.078;2022-11-15T16:25:25;18.80;98.00
21551;DHT22;10936;49.836;7.078;2022-11-15T16:27:51;18.80;98.00
21551;DHT22;10936;49.836;7.078;2022-11-15T16:30:18;18.80;98.00
21551;DHT22;10936;49.836;7.078;2022-11-15T16:32:44;18.80;98.00
21551;DHT22;10936;49.836;7.078;2022-11-15T16:35:14;18.80;98.00
21551;DHT22;10936;49.836;7.078;2022-11-15T16:37:41;18.80;98.00
21551;DHT22;10936;49.836;7.078;2022-11-15T16:40:30;18.80;98.00
21551;DHT22;10936;49.836;7.078;2022-11-15T16:42:57;18.80;98.00
21551;DHT22;10936;49.836;7.078;2022-11-15T16:45:24;18.80;98.00
21551;DHT22;10936;49.836;7.078;2022-11-15T16:47:49;18.80;98.00
21551;DHT22;10936;49.836;7.078;2022-11-15T16:50:26;18.80;98.10
21551;DHT22;10936;49.836;7.078;2022-11-15T16:52:54;18.80;98.10
21551;DHT22;10936;49.836;7.078;2022-11-15T16:55:21;18.80;98.00
21551;DHT22;10936;49.836;7.078;2022-11-15T16:57:48;18.80;98.00
21551;DHT22;10936;49.836;7.078;2022-11-15T17:00:15;18.80;98.00
21551;DHT22;10936;49.836;7.078;2022-11-15T17:02:45;18.80;98.10
21551;DHT22;10936;49.836;7.078;2022-11-15T17:05:12;18.80;98.10
21551;DHT22;10936;49.836;7.078;2022-11-15T17:07:39;18.80;98.00
21551;DHT22;10936;49.836;7.078;2022-11-15T17:10:05;18.80;98.00
21551;DHT22;10936;49.836;7.078;2022-11-15T17:12:33;18.80;98.10
21551;DHT22;10936;49.836;7.078;2022-11-15T17:14:58;18.80;98.10
21551;DHT22;10936;49.836;7.078;2022-11-15T17:17:24;18.80;98.10
21551;DHT22;10936;49.836;7.078;2022-11-15T17:19:51;18.80;98.10
21551;DHT22;10936;49.836;7.078;2022-11-15T17:22:18;18.80;98.20
21551;DHT22;10936;49.836;7.078;2022-11-15T17:24:44;18.80;98.30
21551;DHT22;10936;49.836;7.078;2022-11-15T17:27:10;18.80;98.40
21551;DHT22;10936;49.836;7.078;2022-11-15T17:29:35;18.80;98.40
21551;DHT22;10936;49.836;7.078;2022-11-15T17:32:01;18.80;98.40
21551;DHT22;10936;49.836;7.078;2022-11-15T17:34:26;18.80;98.50
21551;DHT22;10936;49.836;7.078;2022-11-15T17:36:52;18.90;98.60
21551;DHT22;10936;49.836;7.078;2022-11-15T17:39:17;18.90;98.60
21551;DHT22;10936;49.836;7.078;2022-11-15T17:41:45;18.90;98.70
21551;DHT22;10936;49.836;7.078;2022-11-15T17:44:11;18.90;98.70
21551;DHT22;10936;49.836;7.078;2022-11-15T17:46:37;18.90;98.70
21551;DHT22;10936;49.836;7.078;2022-11-15T17:49:03;19.00;98.80
21551;DHT22;10936;49.836;7.078;2022-11-15T17:51:28;19.00;98.80
21551;DHT22;10936;49.836;7.078;2022-11-15T17:53:54;19.00;98.80
21551;DHT22;10936;49.836;7.078;2022-11-15T17:56:21;19.00;98.80
21551;DHT22;10936;49.836;7.078;2022-11-15T17:58:49;19.00;98.90
21551;DHT22;10936;49.836;7.078;2022-11-15T18:03:49;19.00;98.90
21551;DHT22;10936;49.836;7.078;2022-11-15T18:06:16;19.00;99.00
21551;DHT22;10936;49.836;7.078;2022-11-15T18:08:44;19.00;99.00
21551;DHT22;10936;49.836;7.078;2022-11-15T18:13:42;19.00;98.90
21551;DHT22;10936;49.836;7.078;2022-11-15T18:16:11;19.00;99.00
21551;DHT22;10936;49.836;7.078;2022-11-15T18:18:37;19.00;99.00
21551;DHT22;10936;49.836;7.078;2022-11-15T18:21:05;19.00;99.00
21551;DHT22;10936;49.836;7.078;2022-11-15T18:23:31;19.10;99.40
21551;DHT22;10936;49.836;7.078;2022-11-15T18:25:57;19.10;99.00
21551;DHT22;10936;49.836;7.078;2022-11-15T18:28:29;19.10;99.00
21551;DHT22;10936;49.836;7.078;2022-11-15T18:30:55;19.00;99.00
21551;DHT22;10936;49.836;7.078;2022-11-15T18:33:20;19.10;99.10
21551;DHT22;10936;49.836;7.078;2022-11-15T18:35:46;19.10;99.00
21551;DHT22;10936;49.836;7.078;2022-11-15T18:38:12;19.10;99.00
21551;DHT22;10936;49.836;7.078;2022-11-15T18:40:38;19.10;99.00
21551;DHT22;10936;49.836;7.078;2022-11-15T18:43:04;19.10;99.10
21551;DHT22;10936;49.836;7.078;2022-11-15T18:45:30;19.10;99.00
21551;DHT22;10936;49.836;7.078;2022-11-15T18:47:57;19.10;99.00
21551;DHT22;10936;49.836;7.078;2022-11-15T18:50:23;19.10;99.00
21551;DHT22;10936;49.836;7.078;2022-11-15T18:52:49;19.10;98.90
21551;DHT22;10936;49.836;7.078;2022-11-15T18:55:14;19.10;98.90
21551;DHT22;10936;49.836;7.078;2022-11-15T18:57:40;19.10;98.90
21551;DHT22;10936;49.836;7.078;2022-11-15T19:00:06;19.00;98.80
21551;DHT22;10936;49.836;7.078;2022-11-15T19:02:33;19.10;98.90
21551;DHT22;10936;49.836;7.078;2022-11-15T19:04:59;19.10;98.90
21551;DHT22;10936;49.836;7.078;2022-11-15T19:07:24;19.00;98.90
21551;DHT22;10936;49.836;7.078;2022-11-15T19:09:50;19.00;98.90
21551;DHT22;10936;49.836;7.078;2022-11-15T19:12:15;19.00;98.90
21551;DHT22;10936;49.836;7.078;2022-11-15T19:14:41;19.10;99.00
21551;DHT22;10936;49.836;7.078;2022-11-15T19:17:06;19.10;99.00
21551;DHT22;10936;49.836;7.078;2022-11-15T19:19:32;19.10;99.00
21551;DHT22;10936;49.836;7.078;2022-11-15T19:21:57;19.10;99.00
21551;DHT22;10936;49.836;7.078;2022-11-15T19:24:24;19.10;99.00
21551;DHT22;10936;49.836;7.078;2022-11-15T19:26:50;19.10;99.10
21551;DHT22;10936;49.836;7.078;2022-11-15T19:29:16;19.10;99.10
21551;DHT22;10936;49.836;7.078;2022-11-15T19:31:42;19.10;99.10
21551;DHT22;10936;49.836;7.078;2022-11-15T19:34:08;19.10;99.10
21551;DHT22;10936;49.836;7.078;2022-11-15T19:36:37;19.10;99.10
21551;DHT22;10936;49.836;7.078;2022-11-15T19:39:05;19.10;99.10
21551;DHT22;10936;49.836;7.078;2022-11-15T19:41:34;19.10;99.20
21551;DHT22;10936;49.836;7.078;2022-11-15T19:43:59;19.10;99.20
21551;DHT22;10936;49.836;7.078;2022-11-15T19:46:25;19.10;99.20
21551;DHT22;10936;49.836;7.078;2022-11-15T19:48:51;19.10;99.20
21551;DHT22;10936;49.836;7.078;2022-11-15T19:51:19;19.20;99.30
21551;DHT22;10936;49.836;7.078;2022-11-15T19:53:52;19.20;99.30
21551;DHT22;10936;49.836;7.078;2022-11-15T19:56:18;19.20;99.30
21551;DHT22;10936;49.836;7.078;2022-11-15T19:58:45;19.10;99.30
21551;DHT22;10936;49.836;7.078;2022-11-15T20:01:17;19.10;99.30
21551;DHT22;10936;49.836;7.078;2022-11-15T20:03:43;19.10;99.30
21551;DHT22;10936;49.836;7.078;2022-11-15T20:06:11;19.10;99.20
21551;DHT22;10936;49.836;7.078;2022-11-15T20:08:37;19.10;99.30
21551;DHT22;10936;49.836;7.078;2022-11-15T20:11:03;19.10;99.20
21551;DHT22;10936;49.836;7.078;2022-11-15T20:13:30;19.10;99.30
21551;DHT22;10936;49.836;7.078;2022-11-15T20:15:56;19.10;99.30
21551;DHT22;10936;49.836;7.078;2022-11-15T20:18:23;19.10;99.20
21551;DHT22;10936;49.836;7.078;2022-11-15T20:20:49;19.10;99.20
21551;DHT22;10936;49.836;7.078;2022-11-15T20:23:15;19.10;99.20
21551;DHT22;10936;49.836;7.078;2022-11-15T20:25:45;19.10;99.20
21551;DHT22;10936;49.836;7.078;2022-11-15T20:28:16;19.10;99.20
21551;DHT22;10936;49.836;7.078;2022-11-15T20:30:43;19.10;99.20
21551;DHT22;10936;49.836;7.078;2022-11-15T20:33:09;19.00;99.20
21551;DHT22;10936;49.836;7.078;2022-11-15T20:35:35;19.00;99.20
21551;DHT22;10936;49.836;7.078;2022-11-15T20:38:01;19.00;99.20
21551;DHT22;10936;49.836;7.078;2022-11-15T20:40:26;19.00;99.20
21551;DHT22;10936;49.836;7.078;2022-11-15T20:42:52;19.00;99.20
21551;DHT22;10936;49.836;7.078;2022-11-15T20:45:18;19.00;99.10
21551;DHT22;10936;49.836;7.078;2022-11-15T20:47:44;19.00;99.10
21551;DHT22;10936;49.836;7.078;2022-11-15T20:50:09;19.00;99.20
21551;DHT22;10936;49.836;7.078;2022-11-15T20:52:35;19.00;99.20
21551;DHT22;10936;49.836;7.078;2022-11-15T20:55:00;19.00;99.20
21551;DHT22;10936;49.836;7.078;2022-11-15T20:57:26;19.00;99.10
21551;DHT22;10936;49.836;7.078;2022-11-15T20:59:52;19.00;99.10
21551;DHT22;10936;49.836;7.078;2022-11-15T21:02:18;19.00;99.10
21551;DHT22;10936;49.836;7.078;2022-11-15T21:04:43;19.00;99.10
21551;DHT22;10936;49.836;7.078;2022-11-15T21:07:09;19.00;99.10
21551;DHT22;10936;49.836;7.078;2022-11-15T21:09:34;18.90;99.10
21551;DHT22;10936;49.836;7.078;2022-11-15T21:12:19;18.90;99.10
21551;DHT22;10936;49.836;7.078;2022-11-15T21:14:45;18.90;99.10
21551;DHT22;10936;49.836;7.078;2022-11-15T21:17:14;18.90;99.10
21551;DHT22;10936;49.836;7.078;2022-11-15T21:19:40;18.90;99.10
21551;DHT22;10936;49.836;7.078;2022-11-15T21:22:06;19.00;99.10
21551;DHT22;10936;49.836;7.078;2022-11-15T21:24:33;18.90;99.10
21551;DHT22;10936;49.836;7.078;2022-11-15T21:26:59;18.90;99.10
21551;DHT22;10936;49.836;7.078;2022-11-15T21:29:25;18.90;99.10
21551;DHT22;10936;49.836;7.078;2022-11-15T21:31:51;18.90;99.10
21551;DHT22;10936;49.836;7.078;2022-11-15T21:34:18;18.90;99.10
21551;DHT22;10936;49.836;7.078;2022-11-15T21:36:44;18.90;99.10
21551;DHT22;10936;49.836;7.078;2022-11-15T21:39:09;18.90;99.10
21551;DHT22;10936;49.836;7.078;2022-11-15T21:41:35;18.90;99.10
21551;DHT22;10936;49.836;7.078;2022-11-15T21:44:02;18.90;99.00
21551;DHT22;10936;49.836;7.078;2022-11-15T21:46:29;18.90;99.00
21551;DHT22;10936;49.836;7.078;2022-11-15T21:48:56;18.90;99.00
21551;DHT22;10936;49.836;7.078;2022-11-15T21:51:22;18.90;99.00
21551;DHT22;10936;49.836;7.078;2022-11-15T21:53:48;18.90;99.10
21551;DHT22;10936;49.836;7.078;2022-11-15T21:56:14;18.90;99.00
21551;DHT22;10936;49.836;7.078;2022-11-15T21:58:40;18.90;99.00
21551;DHT22;10936;49.836;7.078;2022-11-15T22:01:06;18.90;99.00
21551;DHT22;10936;49.836;7.078;2022-11-15T22:03:51;18.80;99.00
21551;DHT22;10936;49.836;7.078;2022-11-15T22:06:16;18.90;99.00
21551;DHT22;10936;49.836;7.078;2022-11-15T22:08:43;18.80;99.00
21551;DHT22;10936;49.836;7.078;2022-11-15T22:11:09;18.90;99.00
21551;DHT22;10936;49.836;7.078;2022-11-15T22:13:34;18.90;99.00
21551;DHT22;10936;49.836;7.078;2022-11-15T22:16:00;18.80;99.00
21551;DHT22;10936;49.836;7.078;2022-11-15T22:18:26;18.80;99.00
21551;DHT22;10936;49.836;7.078;2022-11-15T22:20:56;18.80;99.00
21551;DHT22;10936;49.836;7.078;2022-11-15T22:23:23;18.80;99.00
21551;DHT22;10936;49.836;7.078;2022-11-15T22:25:50;18.80;99.00
21551;DHT22;10936;49.836;7.078;2022-11-15T22:28:16;18.80;99.00
